Time;durP1;ratioP1;P1;durP2;ratioP2;P2;SDS_P1;SDS_P2;PMS_P1;PMS_P2;Temp;Humidity;BMP_temperature;BMP_pressure;BME280_temperature;BME280_humidity;BME280_pressure;Samples;Min_cycle;Max_cycle;Signal;HPM_P1;HPM_P2
2023/08/18 00:00:17;;;;;;;10.50;9.40;;;;;;;18.58;97.39;97576.11;110141;1241;59746;-69
2023/08/18 00:03:09;;;;;;;9.50;8.10;;;;;;;18.45;100.00;97575.93;110121;1244;71339;-68
2023/08/18 00:05:42;;;;;;;8.90;7.80;;;;;;;18.40;100.00;97575.66;110134;1241;69254;-70
2023/08/18 00:08:15;;;;;;;8.60;7.40;;;;;;;18.35;100.00;97571.95;110127;1243;69074;-69
2023/08/18 00:10:46;;;;;;;7.70;6.90;;;;;;;18.31;100.00;97574.05;110106;1241;59686;-69
2023/08/18 00:13:16;;;;;;;7.90;7.20;;;;;;;18.29;100.00;97572.10;110142;1244;59676;-67
2023/08/18 00:15:47;;;;;;;9.30;8.40;;;;;;;18.28;100.00;97572.46;110146;1246;71252;-68
2023/08/18 00:18:20;;;;;;;8.70;7.80;;;;;;;18.25;100.00;97567.25;110146;1250;68481;-69
2023/08/18 00:20:51;;;;;;;8.70;7.80;;;;;;;18.22;100.00;97566.00;110158;1245;69322;-68
2023/08/18 00:23:22;;;;;;;7.70;6.90;;;;;;;18.19;100.00;97568.73;110155;1246;59724;-68
2023/08/18 00:25:54;;;;;;;8.40;7.50;;;;;;;18.18;100.00;97568.86;110170;1241;59634;-69
2023/08/18 00:28:24;;;;;;;7.40;6.70;;;;;;;18.17;99.90;97569.68;110150;1243;71433;-69
2023/08/18 00:30:55;;;;;;;8.30;7.50;;;;;;;18.17;100.00;97567.55;110110;1246;68730;-69
2023/08/18 00:33:28;;;;;;;8.10;6.90;;;;;;;18.15;100.00;97567.55;110108;1244;68996;-69
2023/08/18 00:36:01;;;;;;;8.30;7.40;;;;;;;18.11;100.00;97568.15;110120;1242;59793;-69
2023/08/18 00:38:34;;;;;;;8.70;7.30;;;;;;;18.06;100.00;97568.34;110141;1241;59709;-68
2023/08/18 00:41:05;;;;;;;8.00;6.60;;;;;;;18.02;100.00;97564.34;110114;1244;71607;-69
2023/08/18 00:43:36;;;;;;;7.70;6.90;;;;;;;17.96;100.00;97562.27;110117;1245;69178;-69
2023/08/18 00:46:07;;;;;;;8.60;7.70;;;;;;;17.91;100.00;97561.42;110112;1243;68523;-69
2023/08/18 00:48:40;;;;;;;8.60;7.30;;;;;;;17.87;100.00;97564.66;110139;1247;59703;-68
2023/08/18 00:51:12;;;;;;;9.30;8.40;;;;;;;17.82;100.00;97562.95;110141;1241;59651;-68
2023/08/18 00:53:45;;;;;;;8.40;7.60;;;;;;;17.78;100.00;97565.27;110120;1243;71597;-68
2023/08/18 00:56:16;;;;;;;8.50;7.60;;;;;;;17.73;100.00;97564.58;110123;1245;69799;-68
2023/08/18 00:58:45;;;;;;;9.80;7.80;;;;;;;17.68;100.00;97564.20;110116;1245;68964;-68
2023/08/18 01:01:23;;;;;;;7.80;7.00;;;;;;;17.61;100.00;97563.30;110136;1243;60082;-69
2023/08/18 01:03:55;;;;;;;9.00;7.80;;;;;;;17.57;100.00;97561.91;110132;1241;59643;-69
2023/08/18 01:06:26;;;;;;;9.30;7.50;;;;;;;17.54;100.00;97560.81;110118;1245;69792;-69
2023/08/18 01:08:58;;;;;;;7.90;7.00;;;;;;;17.51;99.99;97561.59;110102;1244;69720;-69
2023/08/18 01:11:47;;;;;;;8.40;6.90;;;;;;;17.50;99.29;97564.55;110134;1241;68765;-69
2023/08/18 01:14:59;;;;;;;8.60;7.00;;;;;;;17.49;100.00;97567.15;110169;1244;59740;-69
2023/08/18 01:17:40;;;;;;;7.90;6.70;;;;;;;17.47;100.00;97566.80;109603;1248;59699;-70
2023/08/18 01:20:12;;;;;;;7.40;6.70;;;;;;;17.42;100.00;97566.70;110101;1251;70616;-69
2023/08/18 01:22:45;;;;;;;8.10;7.30;;;;;;;17.40;100.00;97564.35;110151;1245;69109;-70
2023/08/18 01:25:15;;;;;;;8.30;7.50;;;;;;;17.38;100.00;97565.54;110128;1244;69267;-69
2023/08/18 01:27:44;;;;;;;7.90;7.00;;;;;;;17.38;100.00;97570.54;110175;1245;59735;-69
2023/08/18 01:30:19;;;;;;;7.50;6.70;;;;;;;17.38;100.00;97578.66;110155;1247;59686;-69
2023/08/18 01:32:58;;;;;;;8.00;7.20;;;;;;;17.38;100.00;97577.73;110077;1245;70812;-69
2023/08/18 01:35:31;;;;;;;8.10;7.30;;;;;;;17.39;100.00;97572.74;110129;1243;68546;-69
2023/08/18 01:38:05;;;;;;;8.70;7.80;;;;;;;17.40;100.00;97571.95;110122;1241;69119;-69
2023/08/18 01:40:39;;;;;;;8.40;7.60;;;;;;;17.41;100.00;97573.18;110132;1244;59710;-70
2023/08/18 01:43:12;;;;;;;8.80;8.00;;;;;;;17.44;100.00;97572.40;110142;1241;59674;-68
2023/08/18 01:45:43;;;;;;;8.00;7.20;;;;;;;17.46;99.87;97571.64;110124;1244;71701;-69
2023/08/18 01:48:16;;;;;;;7.60;6.90;;;;;;;17.49;99.93;97569.37;110116;1245;69065;-69
2023/08/18 01:50:46;;;;;;;7.40;6.40;;;;;;;17.51;100.00;97566.05;110116;1244;69415;-68
2023/08/18 01:53:16;;;;;;;9.70;8.00;;;;;;;17.52;100.00;97563.12;110126;1244;59701;-68
2023/08/18 01:55:48;;;;;;;8.00;7.20;;;;;;;17.49;100.00;97564.64;110145;1243;60101;-68
2023/08/18 01:58:22;;;;;;;9.90;7.50;;;;;;;17.48;100.00;97567.57;110103;1244;71193;-68
2023/08/18 02:00:56;;;;;;;7.90;7.10;;;;;;;17.47;100.00;97568.58;110052;1244;69258;-67
2023/08/18 02:03:27;;;;;;;7.40;6.70;;;;;;;17.46;100.00;97563.88;110125;1244;69042;-68
2023/08/18 02:05:57;;;;;;;7.50;6.80;;;;;;;17.45;100.00;97563.11;110160;1241;59741;-69
2023/08/18 02:08:29;;;;;;;7.60;6.80;;;;;;;17.44;100.00;97560.41;110082;1241;59803;-69
2023/08/18 02:11:02;;;;;;;7.60;6.80;;;;;;;17.43;100.00;97561.70;110123;1244;71228;-69
2023/08/18 02:13:34;;;;;;;8.00;6.80;;;;;;;17.42;100.00;97557.41;110131;1245;67747;-69
2023/08/18 02:16:06;;;;;;;7.90;6.80;;;;;;;17.42;100.00;97556.94;110094;1244;68299;-69
2023/08/18 02:18:39;;;;;;;7.40;6.60;;;;;;;17.39;100.00;97556.27;110159;1241;59741;-69
2023/08/18 02:21:14;;;;;;;7.50;6.60;;;;;;;17.38;100.00;97557.80;110159;1241;59703;-70
2023/08/18 02:23:47;;;;;;;6.90;6.20;;;;;;;17.38;100.00;97562.97;110112;1244;70655;-68
2023/08/18 02:26:19;;;;;;;7.20;6.50;;;;;;;17.36;100.00;97565.97;110167;1244;69298;-70
2023/08/18 02:28:50;;;;;;;7.70;6.80;;;;;;;17.32;100.00;97562.42;110120;1245;69308;-69
2023/08/18 02:31:22;;;;;;;6.90;6.20;;;;;;;17.28;100.00;97564.02;110121;1243;59644;-68
2023/08/18 02:33:54;;;;;;;7.70;6.90;;;;;;;17.25;100.00;97565.20;110129;1245;59700;-68
2023/08/18 02:36:27;;;;;;;7.20;6.50;;;;;;;17.22;100.00;97562.73;110129;1241;69508;-69
2023/08/18 02:38:59;;;;;;;7.60;6.80;;;;;;;17.20;100.00;97564.33;110133;1245;69220;-69
2023/08/18 02:41:31;;;;;;;7.50;6.50;;;;;;;17.19;100.00;97567.96;110138;1241;67536;-68
2023/08/18 02:44:03;;;;;;;8.00;7.00;;;;;;;17.18;100.00;97567.50;110105;1244;59737;-67
2023/08/18 02:46:36;;;;;;;7.40;6.50;;;;;;;17.18;100.00;97570.64;110181;1241;59702;-68
2023/08/18 02:49:07;;;;;;;9.10;7.70;;;;;;;17.17;100.00;97572.55;110115;1244;71953;-68
2023/08/18 02:51:39;;;;;;;8.00;7.10;;;;;;;17.15;100.00;97570.83;110140;1243;68391;-69
2023/08/18 02:54:10;;;;;;;7.70;6.90;;;;;;;17.13;100.00;97572.73;110093;1244;69579;-69
2023/08/18 02:56:44;;;;;;;7.50;6.80;;;;;;;17.11;100.00;97571.04;110146;1241;59824;-68
2023/08/18 02:59:17;;;;;;;7.00;6.30;;;;;;;17.08;100.00;97567.23;110101;1245;59737;-69
2023/08/18 03:01:49;;;;;;;7.50;6.80;;;;;;;17.05;100.00;97570.56;110128;1241;71342;-70
2023/08/18 03:04:20;;;;;;;7.20;5.70;;;;;;;17.02;100.00;97565.75;110159;1242;69127;-69
2023/08/18 03:06:52;;;;;;;7.40;6.70;;;;;;;16.97;100.00;97568.16;110144;1245;69122;-67
2023/08/18 03:09:23;;;;;;;;;;;;;;;16.93;100.00;97569.61;110164;1241;59726;-69
2023/08/18 03:11:58;;;;;;;7.40;6.70;;;;;;;16.89;100.00;97565.73;110144;1243;59766;-69
2023/08/18 03:14:31;;;;;;;7.30;6.60;;;;;;;16.86;100.00;97564.44;110138;1241;70691;-69
2023/08/18 03:17:06;;;;;;;7.90;7.10;;;;;;;16.83;100.00;97565.66;110154;1243;68625;-68
2023/08/18 03:19:38;;;;;;;9.20;7.70;;;;;;;16.79;100.00;97565.62;110110;1244;69274;-68
2023/08/18 03:22:09;;;;;;;8.40;7.60;;;;;;;16.77;100.00;97569.51;110047;1245;59747;-69
2023/08/18 03:24:40;;;;;;;7.90;7.10;;;;;;;16.76;100.00;97571.38;110137;1242;59630;-69
2023/08/18 03:27:11;;;;;;;8.10;7.30;;;;;;;16.74;100.00;97571.79;110134;1246;71240;-69
2023/08/18 03:29:46;;;;;;;7.30;6.50;;;;;;;16.72;100.00;97571.39;110122;1244;68826;-70
2023/08/18 03:32:17;;;;;;;7.30;6.60;;;;;;;16.71;100.00;97573.93;110136;1243;69189;-69
2023/08/18 03:34:47;;;;;;;7.20;6.10;;;;;;;16.71;100.00;97576.56;110119;1244;59702;-69
2023/08/18 03:37:22;;;;;;;7.00;6.30;;;;;;;16.72;100.00;97574.94;110149;1241;59715;-70
2023/08/18 03:39:55;;;;;;;7.50;6.70;;;;;;;16.71;100.00;97574.29;110110;1245;70983;-70
2023/08/18 03:42:28;;;;;;;7.70;6.90;;;;;;;16.72;100.00;97574.02;110178;1243;68569;-69
2023/08/18 03:45:01;;;;;;;7.30;6.40;;;;;;;16.72;100.00;97574.35;110093;1241;67652;-70
2023/08/18 03:47:32;;;;;;;7.40;6.70;;;;;;;16.74;100.00;97576.34;110087;1244;59750;-70
2023/08/18 03:50:05;;;;;;;8.50;7.30;;;;;;;16.76;100.00;97576.32;110119;1245;59757;-70
2023/08/18 03:52:35;;;;;;;8.10;7.10;;;;;;;16.80;100.00;97574.73;110176;1244;71960;-70
2023/08/18 03:55:06;;;;;;;8.00;7.20;;;;;;;16.83;100.00;97571.46;110208;1243;69832;-69
2023/08/18 03:57:36;;;;;;;7.10;6.40;;;;;;;16.89;100.00;97574.55;110090;1244;69878;-70
2023/08/18 04:00:10;;;;;;;8.80;7.90;;;;;;;16.95;100.00;97573.95;110112;1241;59750;-70
2023/08/18 04:02:44;;;;;;;6.90;6.20;;;;;;;17.02;100.00;97578.02;110121;1241;60155;-68
2023/08/18 04:05:16;;;;;;;7.80;7.00;;;;;;;17.08;100.00;97578.16;110140;1245;71250;-69
2023/08/18 04:07:46;;;;;;;8.50;7.60;;;;;;;17.13;100.00;97577.66;110112;1244;69172;-69
2023/08/18 04:10:16;;;;;;;8.20;7.20;;;;;;;17.22;100.00;97578.23;110108;1247;69163;-68
2023/08/18 04:12:46;;;;;;;8.70;7.10;;;;;;;17.35;100.00;97583.48;110110;1241;59732;-69
2023/08/18 04:15:15;;;;;;;;;;;;;;;17.52;100.00;97581.81;110136;1244;59730;-70
2023/08/18 04:17:44;;;;;;;8.40;7.00;;;;;;;17.67;100.00;97587.56;110122;1244;71525;-70
2023/08/18 04:20:13;;;;;;;8.30;7.20;;;;;;;17.83;100.00;97593.55;110184;1243;69271;-70
2023/08/18 04:22:43;;;;;;;8.20;7.10;;;;;;;17.98;100.00;97589.97;110135;1245;69884;-69
2023/08/18 04:25:13;;;;;;;7.90;7.10;;;;;;;18.10;100.00;97588.38;110101;1244;59680;-69
2023/08/18 04:27:43;;;;;;;7.30;6.60;;;;;;;18.24;100.00;97591.02;110118;1241;59693;-69
2023/08/18 04:30:13;;;;;;;6.70;6.00;;;;;;;18.40;100.00;97589.70;110154;1244;71420;-69
2023/08/18 04:32:42;;;;;;;6.80;6.00;;;;;;;18.57;100.00;97593.60;110100;1244;69379;-67
2023/08/18 04:35:13;;;;;;;7.20;6.50;;;;;;;18.73;100.00;97593.38;110167;1243;68521;-69
2023/08/18 04:37:42;;;;;;;7.40;6.70;;;;;;;18.87;100.00;97590.92;110110;1243;59747;-69
2023/08/18 04:40:13;;;;;;;7.60;6.90;;;;;;;19.02;100.00;97592.02;110144;1241;59739;-69
2023/08/18 04:42:43;;;;;;;7.30;6.40;;;;;;;19.23;100.00;97591.39;110098;1245;71858;-68
2023/08/18 04:45:13;;;;;;;6.30;5.70;;;;;;;19.48;100.00;97589.23;110132;1241;69140;-70
2023/08/18 04:47:43;;;;;;;6.60;5.90;;;;;;;19.80;100.00;97585.30;110086;1245;69863;-69
2023/08/18 04:50:14;;;;;;;7.40;6.70;;;;;;;20.13;100.00;97581.19;110069;1244;59811;-69
2023/08/18 04:52:44;;;;;;;7.10;6.50;;;;;;;20.44;100.00;97583.91;110168;1244;59695;-69
2023/08/18 04:55:14;;;;;;;7.50;6.80;;;;;;;20.76;100.00;97581.91;110150;1243;69821;-69
2023/08/18 04:57:43;;;;;;;;;;;;;;;21.10;99.69;97582.90;110126;1244;69837;-69
2023/08/18 05:00:14;;;;;;;7.80;6.40;;;;;;;21.33;97.09;97579.40;110121;1244;69315;-68
2023/08/18 05:02:44;;;;;;;6.80;5.80;;;;;;;21.62;98.66;97575.50;110131;1241;60094;-66
2023/08/18 05:05:14;;;;;;;7.40;6.60;;;;;;;21.92;97.27;97576.77;110188;1244;59675;-69
2023/08/18 05:07:45;;;;;;;6.80;6.10;;;;;;;22.12;93.66;97580.55;110182;1241;72051;-70
2023/08/18 05:10:14;;;;;;;6.70;6.00;;;;;;;22.21;90.88;97583.77;110170;1245;68253;-69
2023/08/18 05:12:43;;;;;;;;;;;;;;;22.30;87.94;97581.23;110140;1241;69262;-69
2023/08/18 05:15:12;;;;;;;7.80;7.00;;;;;;;22.33;87.31;97581.42;110139;1243;59689;-70
2023/08/18 05:17:42;;;;;;;7.40;6.60;;;;;;;22.52;88.61;97584.49;110200;1243;59756;-71
2023/08/18 05:20:11;;;;;;;8.00;6.80;;;;;;;22.73;87.77;97587.50;110151;1243;71346;-71
2023/08/18 05:22:41;;;;;;;7.30;6.60;;;;;;;22.97;87.34;97587.23;110144;1244;68546;-69
2023/08/18 05:25:10;;;;;;;7.80;7.00;;;;;;;23.19;84.21;97585.73;110099;1245;69383;-69
2023/08/18 05:27:40;;;;;;;9.60;7.40;;;;;;;23.38;84.05;97589.61;110147;1241;59730;-69
2023/08/18 05:30:09;;;;;;;8.10;7.30;;;;;;;23.55;81.01;97589.44;110150;1241;59730;-68
2023/08/18 05:32:38;;;;;;;7.70;6.80;;;;;;;23.75;80.07;97590.69;110140;1244;71420;-69
2023/08/18 05:35:11;;;;;;;7.70;6.60;;;;;;;23.94;80.59;97588.39;110201;1244;69157;-70
2023/08/18 05:37:40;;;;;;;9.30;8.30;;;;;;;24.10;80.51;97588.83;110165;1243;69640;-71
2023/08/18 05:40:09;;;;;;;;;;;;;;;24.15;81.10;97583.88;110131;1244;59678;-70
2023/08/18 05:42:38;;;;;;;7.70;7.00;;;;;;;24.26;77.60;97577.58;110164;1244;59701;-70
2023/08/18 05:45:07;;;;;;;;;;;;;;;24.54;78.56;97575.66;110179;1241;71999;-67
2023/08/18 05:47:37;;;;;;;6.60;6.00;;;;;;;24.73;73.27;97577.48;110094;1242;69220;-69
2023/08/18 05:50:11;;;;;;;8.20;6.10;;;;;;;25.05;70.27;97576.23;110153;1244;69459;-69
2023/08/18 05:52:40;;;;;;;6.10;5.50;;;;;;;25.31;67.91;97582.56;110135;1244;59718;-70
2023/08/18 05:55:09;;;;;;;5.80;5.20;;;;;;;25.67;69.22;97578.70;110161;1243;59647;-70
2023/08/18 05:57:41;;;;;;;5.30;4.80;;;;;;;26.15;69.03;97577.05;110138;1244;71663;-71
2023/08/18 06:00:13;;;;;;;5.80;5.30;;;;;;;26.37;64.38;97579.97;110138;1245;69437;-68
2023/08/18 06:02:43;;;;;;;6.30;5.70;;;;;;;26.46;63.78;97579.50;110124;1241;69657;-68
2023/08/18 06:05:13;;;;;;;6.50;5.90;;;;;;;26.49;63.02;97578.64;110179;1245;59747;-69
2023/08/18 06:07:41;;;;;;;;;;;;;;;26.73;66.63;97580.50;110155;1244;59646;-70
2023/08/18 06:10:11;;;;;;;6.40;5.30;;;;;;;27.05;68.70;97584.42;110113;1241;72097;-69
2023/08/18 06:12:40;;;;;;;;;;;;;;;27.48;68.05;97584.82;110143;1241;69831;-68
2023/08/18 06:15:10;;;;;;;6.40;5.40;;;;;;;27.77;61.70;97584.88;110122;1241;68529;-68
2023/08/18 06:17:40;;;;;;;6.20;5.60;;;;;;;28.12;62.63;97580.45;110126;1243;59707;-71
2023/08/18 06:20:11;;;;;;;5.90;5.20;;;;;;;28.32;58.81;97577.56;110158;1241;59685;-71
2023/08/18 06:22:40;;;;;;;6.10;5.20;;;;;;;28.44;55.29;97581.70;110197;1245;71943;-70
2023/08/18 06:25:11;;;;;;;6.20;5.60;;;;;;;28.31;54.91;97581.18;110196;1243;69547;-69
2023/08/18 06:27:40;;;;;;;5.60;5.00;;;;;;;28.27;57.10;97578.64;110177;1244;70249;-69
2023/08/18 06:30:11;;;;;;;6.10;5.40;;;;;;;28.30;55.31;97580.45;110140;1244;59667;-69
2023/08/18 06:32:41;;;;;;;5.50;5.00;;;;;;;28.52;54.95;97577.13;110139;1244;59696;-69
2023/08/18 06:35:10;;;;;;;5.20;4.60;;;;;;;28.74;54.78;97576.48;110116;1244;71096;-69
2023/08/18 06:37:39;;;;;;;5.50;4.90;;;;;;;28.86;53.50;97579.70;110123;1243;69106;-69
2023/08/18 06:40:10;;;;;;;7.00;5.30;;;;;;;29.14;54.67;97582.21;110093;1244;69220;-70
2023/08/18 06:42:39;;;;;;;6.10;5.00;;;;;;;29.07;52.84;97582.88;110116;1244;59730;-68
2023/08/18 06:45:09;;;;;;;4.90;4.50;;;;;;;29.46;54.07;97581.48;110117;1244;59635;-69
2023/08/18 06:47:38;;;;;;;4.80;4.30;;;;;;;29.70;49.04;97579.46;110151;1241;71350;-68
2023/08/18 06:50:09;;;;;;;4.50;4.10;;;;;;;29.91;48.62;97581.92;110134;1243;69269;-69
2023/08/18 06:52:39;;;;;;;4.20;3.80;;;;;;;30.26;48.64;97582.02;110134;1241;68406;-68
2023/08/18 06:55:14;;;;;;;4.80;4.40;;;;;;;30.44;48.99;97578.40;110117;1243;59744;-69
2023/08/18 06:57:59;;;;;;;5.00;4.50;;;;;;;30.52;48.30;97574.31;110095;1244;59710;-69
2023/08/18 07:00:28;;;;;;;5.30;4.30;;;;;;;30.53;50.26;97574.40;110134;1244;72299;-68
2023/08/18 07:02:58;;;;;;;4.40;3.90;;;;;;;30.82;50.83;97573.19;110157;1241;69683;-69
2023/08/18 07:05:29;;;;;;;4.40;3.40;;;;;;;31.13;46.90;97577.13;110161;1244;69848;-68
2023/08/18 07:07:58;;;;;;;4.30;3.90;;;;;;;31.53;46.76;97576.38;110095;1241;59716;-67
2023/08/18 07:10:27;;;;;;;4.10;3.60;;;;;;;31.89;47.89;97580.34;110135;1241;59728;-68
2023/08/18 07:12:56;;;;;;;6.00;4.30;;;;;;;32.12;43.93;97579.71;110113;1244;71452;-68
2023/08/18 07:15:26;;;;;;;4.60;4.10;;;;;;;32.14;45.08;97582.56;110159;1244;69242;-68
2023/08/18 07:17:55;;;;;;;4.70;4.00;;;;;;;31.94;44.15;97584.59;109634;1241;689073;-69
2023/08/18 07:20:26;;;;;;;4.30;3.90;;;;;;;31.68;43.89;97581.34;110202;1242;59742;-69
2023/08/18 07:22:55;;;;;;;4.50;4.10;;;;;;;31.76;44.89;97583.12;110179;1244;59687;-68
2023/08/18 07:25:24;;;;;;;4.40;4.00;;;;;;;31.73;43.75;97581.18;110115;1244;70472;-70
2023/08/18 07:27:54;;;;;;;4.80;3.90;;;;;;;31.74;45.47;97579.04;110154;1241;68621;-68
2023/08/18 07:30:23;;;;;;;4.70;4.20;;;;;;;31.83;46.18;97577.26;110135;1244;69865;-69
2023/08/18 07:32:54;;;;;;;5.30;4.80;;;;;;;31.79;44.80;97579.40;110140;1244;59677;-69
2023/08/18 07:35:23;;;;;;;4.60;4.00;;;;;;;31.85;44.87;97583.25;110128;1241;59744;-68
2023/08/18 07:37:52;;;;;;;5.40;4.10;;;;;;;32.02;44.78;97583.44;110153;1243;72452;-67
2023/08/18 07:40:23;;;;;;;5.70;4.50;;;;;;;32.22;43.80;97580.83;110124;1243;69834;-69
2023/08/18 07:42:52;;;;;;;5.30;4.50;;;;;;;32.31;42.10;97580.76;110114;1241;69237;-68
2023/08/18 07:45:22;;;;;;;5.60;4.90;;;;;;;32.47;41.97;97575.14;110138;1245;59629;-67
2023/08/18 07:47:51;;;;;;;6.80;6.20;;;;;;;32.42;42.77;97579.02;110130;1244;59694;-68
2023/08/18 07:50:22;;;;;;;8.60;6.30;;;;;;;32.46;45.22;97581.74;110148;1244;71384;-68
2023/08/18 07:52:52;;;;;;;9.10;7.90;;;;;;;32.68;42.87;97581.85;110140;1241;69382;-67
2023/08/18 07:55:22;;;;;;;7.40;6.60;;;;;;;32.92;41.70;97579.91;110139;1245;69826;-69
2023/08/18 07:57:51;;;;;;;6.60;5.90;;;;;;;33.04;42.86;97580.84;110146;1241;59689;-69
2023/08/18 08:00:22;;;;;;;5.60;5.10;;;;;;;33.17;42.41;97582.13;110127;1244;59631;-68
2023/08/18 08:02:51;;;;;;;5.50;5.00;;;;;;;33.04;41.44;97577.94;110126;1243;71974;-67
2023/08/18 08:05:20;;;;;;;4.70;4.30;;;;;;;33.54;40.66;97580.30;110115;1241;68499;-67
2023/08/18 08:07:50;;;;;;;6.40;5.00;;;;;;;34.10;40.77;97584.39;110116;1241;69718;-69
2023/08/18 08:10:19;;;;;;;6.30;5.10;;;;;;;34.43;39.50;97580.73;110106;1243;59660;-69
2023/08/18 08:12:49;;;;;;;5.30;4.50;;;;;;;34.67;39.45;97581.95;110158;1243;59678;-69
2023/08/18 08:15:19;;;;;;;4.50;4.10;;;;;;;34.69;37.88;97582.84;110119;1241;71686;-69
2023/08/18 08:17:48;;;;;;;5.20;4.70;;;;;;;34.74;37.75;97582.16;110170;1244;69640;-68
2023/08/18 08:20:19;;;;;;;5.00;4.50;;;;;;;34.55;37.14;97579.91;110120;1243;69200;-69
2023/08/18 08:22:52;;;;;;;4.70;4.20;;;;;;;34.65;37.54;97581.94;110140;1243;59754;-69
2023/08/18 08:25:23;;;;;;;5.50;4.00;;;;;;;34.94;37.25;97580.05;110136;1243;59691;-68
2023/08/18 08:27:52;;;;;;;4.60;4.20;;;;;;;35.20;37.60;97578.27;110121;1241;71998;-68
2023/08/18 08:30:25;;;;;;;4.90;4.10;;;;;;;35.41;36.47;97583.96;110120;1241;69234;-69
2023/08/18 08:33:04;;;;;;;5.10;4.50;;;;;;;35.45;36.50;97583.10;110075;1241;68802;-68
2023/08/18 08:35:34;;;;;;;5.10;4.60;;;;;;;35.61;37.11;97583.11;110082;1241;59699;-69
2023/08/18 08:38:03;;;;;;;5.70;5.00;;;;;;;35.45;35.99;97582.02;110173;1245;59698;-69
2023/08/18 08:40:32;;;;;;;5.30;4.90;;;;;;;35.22;35.72;97581.64;110149;1241;71392;-68
2023/08/18 08:43:01;;;;;;;4.90;4.40;;;;;;;35.18;36.58;97581.25;110115;1243;69804;-68
2023/08/18 08:45:34;;;;;;;4.70;4.20;;;;;;;35.50;37.15;97582.16;110100;1243;69264;-67
2023/08/18 08:48:07;;;;;;;5.70;5.20;;;;;;;35.55;35.92;97584.02;110194;1244;59746;-67
2023/08/18 08:50:40;;;;;;;25.60;23.40;;;;;;;35.51;36.27;97583.73;110175;1244;59657;-68
2023/08/18 08:53:12;;;;;;;10.90;9.90;;;;;;;35.52;36.11;97586.90;110168;1245;72029;-67
2023/08/18 08:55:44;;;;;;;5.80;5.30;;;;;;;35.28;35.30;97580.97;110140;1243;69021;-67
2023/08/18 08:58:14;;;;;;;9.20;8.20;;;;;;;35.00;35.79;97577.68;110123;1244;69864;-67
2023/08/18 09:00:44;;;;;;;13.00;10.30;;;;;;;35.50;36.52;97581.38;110107;1243;59750;-67
2023/08/18 09:03:13;;;;;;;8.70;7.00;;;;;;;35.74;35.78;97580.24;110136;1243;59708;-67
2023/08/18 09:05:43;;;;;;;11.90;10.30;;;;;;;35.95;35.20;97581.09;110136;1244;71377;-67
2023/08/18 09:08:12;;;;;;;5.80;5.30;;;;;;;36.44;35.37;97582.80;110150;1244;69236;-68
2023/08/18 09:10:43;;;;;;;8.40;6.80;;;;;;;36.20;34.37;97578.89;110146;1244;69881;-69
2023/08/18 09:13:12;;;;;;;4.80;4.40;;;;;;;36.09;34.69;97583.02;110221;1241;59825;-68
2023/08/18 09:15:44;;;;;;;4.20;3.80;;;;;;;36.28;34.19;97580.25;110195;1241;59646;-67
2023/08/18 09:18:17;;;;;;;5.20;4.70;;;;;;;36.65;34.25;97577.95;110159;1244;72195;-68
2023/08/18 09:20:47;;;;;;;14.50;12.70;;;;;;;36.68;34.62;97577.16;110109;1244;69718;-67
2023/08/18 09:23:18;;;;;;;9.50;8.50;;;;;;;36.59;34.97;97575.34;110101;1245;68514;-68
2023/08/18 09:25:50;;;;;;;8.50;7.70;;;;;;;36.69;35.07;97571.84;110043;1244;59703;-67
2023/08/18 09:28:19;;;;;;;5.20;4.80;;;;;;;36.60;33.92;97574.46;110132;1244;59654;-68
2023/08/18 09:30:52;;;;;;;4.90;4.50;;;;;;;36.78;34.13;97570.39;110023;1244;72314;-69
2023/08/18 09:33:27;;;;;;;4.80;4.40;;;;;;;37.24;33.63;97566.66;110163;1244;69692;-68
2023/08/18 09:36:03;;;;;;;4.90;3.80;;;;;;;37.54;32.39;97564.89;110175;1241;68559;-69
2023/08/18 09:38:43;;;;;;;4.60;4.20;;;;;;;37.77;32.65;97565.30;110237;1244;60157;-69
2023/08/18 09:41:13;;;;;;;5.20;4.50;;;;;;;38.04;32.48;97558.84;110097;1244;59698;-70
2023/08/18 09:43:42;;;;;;;5.30;4.80;;;;;;;36.75;33.00;97561.69;110095;1243;71227;-67
2023/08/18 09:46:13;;;;;;;4.50;4.10;;;;;;;35.99;33.69;97565.05;110077;1242;68555;-68
2023/08/18 09:48:47;;;;;;;5.00;4.50;;;;;;;35.85;35.17;97562.59;110077;1251;69337;-68
2023/08/18 09:51:20;;;;;;;5.40;4.90;;;;;;;36.34;34.87;97562.45;110073;1244;59764;-69
2023/08/18 09:53:59;;;;;;;4.90;4.30;;;;;;;36.26;34.20;97559.20;110127;1244;59693;-68
2023/08/18 09:56:33;;;;;;;4.10;3.70;;;;;;;35.69;34.75;97558.10;110103;1244;70819;-67
2023/08/18 09:59:27;;;;;;;4.70;4.30;;;;;;;35.89;34.89;97556.73;110104;1244;69851;-65
2023/08/18 10:01:57;;;;;;;4.70;4.30;;;;;;;36.26;34.74;97556.09;110061;1245;69953;-67
2023/08/18 10:04:27;;;;;;;5.10;4.70;;;;;;;36.87;33.76;97557.31;110104;1245;59697;-68
2023/08/18 10:06:56;;;;;;;4.90;4.10;;;;;;;37.25;33.35;97555.04;110149;1244;59818;-68
2023/08/18 10:09:27;;;;;;;4.30;3.90;;;;;;;37.65;32.78;97556.09;110093;1244;71946;-69
2023/08/18 10:11:57;;;;;;;4.20;3.80;;;;;;;37.95;32.72;97556.94;110090;1244;69120;-68
2023/08/18 10:14:26;;;;;;;6.70;5.20;;;;;;;38.22;32.03;97558.41;110087;1244;69379;-68
2023/08/18 10:16:56;;;;;;;4.70;4.20;;;;;;;38.18;31.54;97553.27;110088;1244;59680;-68
2023/08/18 10:19:49;;;;;;;4.70;4.30;;;;;;;38.27;31.42;97557.77;110127;1242;59737;-67
2023/08/18 10:22:20;;;;;;;5.10;4.60;;;;;;;38.34;30.08;97552.65;110096;1243;70863;-68
2023/08/18 10:24:50;;;;;;;5.00;4.30;;;;;;;38.49;29.97;97550.22;110137;1241;69221;-68
2023/08/18 10:27:25;;;;;;;5.00;4.50;;;;;;;38.33;30.73;97548.05;110040;1241;69321;-68
2023/08/18 10:29:59;;;;;;;4.90;4.40;;;;;;;38.35;30.45;97545.20;110104;1244;59763;-69
2023/08/18 10:32:32;;;;;;;5.40;4.50;;;;;;;38.45;30.26;97548.77;110171;1245;59652;-68
2023/08/18 10:35:21;;;;;;;4.50;4.10;;;;;;;38.31;29.98;97546.72;110106;1241;71989;-68
2023/08/18 10:37:54;;;;;;;5.00;4.60;;;;;;;38.34;29.93;97545.06;110150;1244;69820;-68
2023/08/18 10:40:27;;;;;;;5.80;4.80;;;;;;;37.94;29.72;97546.42;110117;1245;70051;-68
2023/08/18 10:43:08;;;;;;;4.50;4.10;;;;;;;37.99;29.67;97545.77;110109;1241;59763;-68
2023/08/18 10:45:40;;;;;;;4.90;4.30;;;;;;;38.10;29.34;97542.19;110144;1243;59629;-68
2023/08/18 10:48:10;;;;;;;5.00;4.60;;;;;;;38.33;29.21;97540.69;110112;1243;71496;-68
2023/08/18 10:50:44;;;;;;;4.50;4.00;;;;;;;38.16;29.01;97542.96;110133;1243;69842;-68
2023/08/18 10:53:16;;;;;;;4.40;4.00;;;;;;;38.27;29.05;97541.78;110129;1244;69329;-68
2023/08/18 10:55:45;;;;;;;4.70;4.30;;;;;;;38.47;28.82;97538.39;110116;1243;59688;-68
2023/08/18 10:58:15;;;;;;;5.10;3.90;;;;;;;39.06;29.24;97534.14;110110;1241;59663;-67
2023/08/18 11:00:45;;;;;;;4.60;4.20;;;;;;;39.34;27.76;97534.84;110139;1241;71942;-67
2023/08/18 11:03:16;;;;;;;4.20;3.80;;;;;;;39.57;26.92;97535.70;110073;1244;69726;-68
2023/08/18 11:05:46;;;;;;;4.70;4.00;;;;;;;39.59;26.27;97540.92;110114;1241;68471;-68
2023/08/18 11:08:15;;;;;;;4.10;3.80;;;;;;;38.97;26.35;97540.08;110114;1245;59666;-68
2023/08/18 11:10:44;;;;;;;3.80;3.50;;;;;;;39.31;27.05;97535.93;110116;1244;59681;-68
2023/08/18 11:13:23;;;;;;;3.80;3.50;;;;;;;39.49;25.97;97532.48;110213;1241;71339;-69
2023/08/18 11:15:54;;;;;;;4.80;4.30;;;;;;;39.48;26.48;97530.42;110137;1241;69286;-68
2023/08/18 11:18:24;;;;;;;4.30;3.90;;;;;;;39.43;26.81;97526.11;110138;1241;69340;-68
2023/08/18 11:20:57;;;;;;;4.80;4.30;;;;;;;39.62;26.17;97529.12;110120;1244;59738;-68
2023/08/18 11:23:27;;;;;;;5.00;4.50;;;;;;;39.65;26.50;97530.57;110164;1241;59660;-68
2023/08/18 11:25:56;;;;;;;4.80;4.00;;;;;;;39.71;26.13;97528.89;110134;1241;71786;-68
2023/08/18 11:28:26;;;;;;;3.60;3.30;;;;;;;39.53;26.17;97527.61;110149;1245;69262;-68
2023/08/18 11:30:55;;;;;;;4.60;4.20;;;;;;;39.76;25.93;97527.94;110140;1244;69480;-68
2023/08/18 11:33:26;;;;;;;4.40;4.00;;;;;;;39.82;25.99;97526.42;110114;1244;60059;-68
2023/08/18 11:35:55;;;;;;;5.10;4.60;;;;;;;39.65;25.73;97527.05;110109;1244;59693;-69
2023/08/18 11:38:25;;;;;;;5.10;4.60;;;;;;;39.89;26.29;97523.67;110115;1241;71993;-68
2023/08/18 11:40:54;;;;;;;4.90;3.70;;;;;;;39.97;25.91;97526.08;110150;1241;69761;-69
2023/08/18 11:43:24;;;;;;;6.70;3.90;;;;;;;40.17;26.25;97524.98;110233;1244;69809;-69